Markville, Minnesota
Current Conditions -  °F | °C
As of 8:55 AM on Monday 22 Dec 2014 (Local Time) from K04W Reporting Station
Haze Haze  
Wind Chill: 36°   Ceiling: 600
Heat Index: 36°   Visibility: 2.5mi
Dew Point: 36°   Wind: 0mph
Humidity: 100%   Direction: NA
Pressure: 29.67"   Gusts: NA
Location:  46.138°N, 92.5611°W
Report Text: K04W 221455Z AUTO 00000KT 2 1/2SM BR OVC006 02/02 A2967 RMK AO2
Loading
Personal Weather Stations






























Interactive Weather Map New forecast layout! Learn more

10-Day Weather Forecast

Advertisements
Track Severe Weather on mobile